sensor_id;sensor_type;location;lat;lon;timestamp;pressure;altitude;pressure_sealevel;temperature;humidity
3142;BME280;1581;51.568;6.998;2022-08-01T00:02:27;100888.69;;;21.03;100.00
3142;BME280;1581;51.568;6.998;2022-08-01T00:04:57;100893.81;;;20.99;100.00
3142;BME280;1581;51.568;6.998;2022-08-01T00:07:26;100890.84;;;21.01;100.00
3142;BME280;1581;51.568;6.998;2022-08-01T00:09:57;100896.63;;;21.09;100.00
3142;BME280;1581;51.568;6.998;2022-08-01T00:12:24;100896.53;;;20.99;100.00
3142;BME280;1581;51.568;6.998;2022-08-01T00:14:52;100900.75;;;20.90;100.00
3142;BME280;1581;51.568;6.998;2022-08-01T00:17:20;100908.25;;;21.05;100.00
3142;BME280;1581;51.568;6.998;2022-08-01T00:19:49;100899.22;;;20.99;100.00
3142;BME280;1581;51.568;6.998;2022-08-01T00:22:16;100904.66;;;20.99;100.00
3142;BME280;1581;51.568;6.998;2022-08-01T00:24:44;100904.88;;;20.98;100.00
3142;BME280;1581;51.568;6.998;2022-08-01T00:27:13;100896.00;;;21.02;100.00
3142;BME280;1581;51.568;6.998;2022-08-01T00:29:41;100897.50;;;20.93;100.00
3142;BME280;1581;51.568;6.998;2022-08-01T00:32:08;100906.97;;;20.91;100.00
3142;BME280;1581;51.568;6.998;2022-08-01T00:34:36;100905.94;;;20.97;100.00
3142;BME280;1581;51.568;6.998;2022-08-01T00:37:04;100906.16;;;20.90;100.00
3142;BME280;1581;51.568;6.998;2022-08-01T00:39:33;100903.25;;;20.97;100.00
3142;BME280;1581;51.568;6.998;2022-08-01T00:42:06;100900.78;;;20.95;100.00
3142;BME280;1581;51.568;6.998;2022-08-01T00:44:36;100904.25;;;20.91;100.00
3142;BME280;1581;51.568;6.998;2022-08-01T00:47:04;100903.81;;;20.99;100.00
3142;BME280;1581;51.568;6.998;2022-08-01T00:49:32;100904.56;;;20.94;100.00
3142;BME280;1581;51.568;6.998;2022-08-01T00:52:00;100902.16;;;20.98;100.00
3142;BME280;1581;51.568;6.998;2022-08-01T00:54:30;100897.28;;;20.95;100.00
3142;BME280;1581;51.568;6.998;2022-08-01T00:56:58;100897.03;;;20.59;100.00
3142;BME280;1581;51.568;6.998;2022-08-01T00:59:26;100898.81;;;20.70;100.00
3142;BME280;1581;51.568;6.998;2022-08-01T01:01:56;100892.38;;;20.76;100.00
3142;BME280;1581;51.568;6.998;2022-08-01T01:04:23;100894.09;;;20.81;100.00
3142;BME280;1581;51.568;6.998;2022-08-01T01:06:57;100892.38;;;20.76;100.00
3142;BME280;1581;51.568;6.998;2022-08-01T01:09:36;100898.13;;;20.79;100.00
3142;BME280;1581;51.568;6.998;2022-08-01T01:12:17;100894.94;;;20.82;100.00
3142;BME280;1581;51.568;6.998;2022-08-01T01:15:02;100899.03;;;20.84;100.00
3142;BME280;1581;51.568;6.998;2022-08-01T01:17:39;100885.97;;;20.81;100.00
3142;BME280;1581;51.568;6.998;2022-08-01T01:20:11;100887.94;;;20.86;100.00
3142;BME280;1581;51.568;6.998;2022-08-01T01:23:10;100892.97;;;20.78;100.00
3142;BME280;1581;51.568;6.998;2022-08-01T01:25:51;100888.75;;;20.86;100.00
3142;BME280;1581;51.568;6.998;2022-08-01T01:31:17;100891.91;;;21.00;100.00
3142;BME280;1581;51.568;6.998;2022-08-01T01:33:47;100892.41;;;20.97;100.00
3142;BME280;1581;51.568;6.998;2022-08-01T01:36:17;100898.09;;;20.95;100.00
3142;BME280;1581;51.568;6.998;2022-08-01T01:38:46;100894.44;;;20.85;100.00
3142;BME280;1581;51.568;6.998;2022-08-01T01:41:17;100901.25;;;20.87;100.00
3142;BME280;1581;51.568;6.998;2022-08-01T01:43:46;100904.53;;;20.89;100.00
3142;BME280;1581;51.568;6.998;2022-08-01T01:46:21;100903.63;;;20.84;100.00
3142;BME280;1581;51.568;6.998;2022-08-01T01:48:51;100902.56;;;20.85;100.00
3142;BME280;1581;51.568;6.998;2022-08-01T01:51:22;100901.50;;;20.86;100.00
3142;BME280;1581;51.568;6.998;2022-08-01T01:53:54;100907.09;;;20.63;100.00
3142;BME280;1581;51.568;6.998;2022-08-01T01:56:22;100896.41;;;20.73;100.00
3142;BME280;1581;51.568;6.998;2022-08-01T01:58:53;100907.31;;;20.78;100.00
3142;BME280;1581;51.568;6.998;2022-08-01T02:01:26;100900.75;;;20.74;100.00
3142;BME280;1581;51.568;6.998;2022-08-01T02:03:56;100904.13;;;20.81;100.00
3142;BME280;1581;51.568;6.998;2022-08-01T02:06:27;100901.09;;;20.78;100.00
3142;BME280;1581;51.568;6.998;2022-08-01T02:08:55;100908.47;;;20.82;100.00
3142;BME280;1581;51.568;6.998;2022-08-01T02:11:23;100895.81;;;20.87;100.00
3142;BME280;1581;51.568;6.998;2022-08-01T02:13:55;100907.78;;;20.91;100.00
3142;BME280;1581;51.568;6.998;2022-08-01T02:16:29;100899.41;;;20.93;100.00
3142;BME280;1581;51.568;6.998;2022-08-01T02:18:59;100902.00;;;20.83;100.00
3142;BME280;1581;51.568;6.998;2022-08-01T02:21:31;100894.81;;;20.93;100.00
3142;BME280;1581;51.568;6.998;2022-08-01T02:24:09;100894.00;;;20.93;100.00
3142;BME280;1581;51.568;6.998;2022-08-01T02:26:42;100899.91;;;20.90;100.00
3142;BME280;1581;51.568;6.998;2022-08-01T02:29:19;100904.84;;;20.93;100.00
3142;BME280;1581;51.568;6.998;2022-08-01T02:31:53;100907.34;;;20.99;100.00
3142;BME280;1581;51.568;6.998;2022-08-01T02:34:22;100912.50;;;21.01;100.00
3142;BME280;1581;51.568;6.998;2022-08-01T02:36:52;100907.91;;;21.01;100.00
3142;BME280;1581;51.568;6.998;2022-08-01T02:39:23;100898.97;;;21.01;100.00
3142;BME280;1581;51.568;6.998;2022-08-01T02:41:57;100903.09;;;20.87;100.00
3142;BME280;1581;51.568;6.998;2022-08-01T02:44:32;100908.34;;;20.93;100.00
3142;BME280;1581;51.568;6.998;2022-08-01T02:47:03;100900.47;;;20.92;100.00
3142;BME280;1581;51.568;6.998;2022-08-01T02:49:35;100896.44;;;20.94;100.00
3142;BME280;1581;51.568;6.998;2022-08-01T02:52:07;100891.84;;;20.95;100.00
3142;BME280;1581;51.568;6.998;2022-08-01T02:54:38;100895.09;;;20.97;100.00
3142;BME280;1581;51.568;6.998;2022-08-01T02:57:09;100894.97;;;20.87;100.00
3142;BME280;1581;51.568;6.998;2022-08-01T02:59:38;100905.28;;;20.85;100.00
3142;BME280;1581;51.568;6.998;2022-08-01T03:02:08;100899.09;;;20.89;100.00
3142;BME280;1581;51.568;6.998;2022-08-01T03:04:39;100899.66;;;20.91;100.00
3142;BME280;1581;51.568;6.998;2022-08-01T03:07:10;100894.81;;;20.93;100.00
3142;BME280;1581;51.568;6.998;2022-08-01T03:09:42;100905.59;;;20.88;100.00
3142;BME280;1581;51.568;6.998;2022-08-01T03:12:14;100909.53;;;20.81;100.00
3142;BME280;1581;51.568;6.998;2022-08-01T03:14:44;100906.25;;;20.63;100.00
3142;BME280;1581;51.568;6.998;2022-08-01T03:17:16;100906.34;;;20.68;100.00
3142;BME280;1581;51.568;6.998;2022-08-01T03:19:47;100903.19;;;20.76;100.00
3142;BME280;1581;51.568;6.998;2022-08-01T03:22:16;100904.44;;;20.68;100.00
3142;BME280;1581;51.568;6.998;2022-08-01T03:24:47;100898.28;;;20.73;100.00
3142;BME280;1581;51.568;6.998;2022-08-01T03:27:19;100908.41;;;20.77;100.00
3142;BME280;1581;51.568;6.998;2022-08-01T03:29:48;100904.28;;;20.75;100.00
3142;BME280;1581;51.568;6.998;2022-08-01T03:32:20;100913.72;;;20.72;100.00
3142;BME280;1581;51.568;6.998;2022-08-01T03:34:49;100912.16;;;20.76;100.00
3142;BME280;1581;51.568;6.998;2022-08-01T03:37:24;100913.59;;;20.79;100.00
3142;BME280;1581;51.568;6.998;2022-08-01T03:39:58;100915.44;;;20.78;100.00
3142;BME280;1581;51.568;6.998;2022-08-01T03:42:32;100925.72;;;20.76;100.00
3142;BME280;1581;51.568;6.998;2022-08-01T03:45:06;100924.16;;;20.64;100.00
3142;BME280;1581;51.568;6.998;2022-08-01T03:47:37;100929.13;;;20.72;100.00
3142;BME280;1581;51.568;6.998;2022-08-01T03:50:06;100920.78;;;20.73;100.00
3142;BME280;1581;51.568;6.998;2022-08-01T03:52:39;100924.41;;;20.79;100.00
3142;BME280;1581;51.568;6.998;2022-08-01T03:55:08;100933.66;;;20.82;100.00
3142;BME280;1581;51.568;6.998;2022-08-01T03:57:37;100929.41;;;20.86;100.00
3142;BME280;1581;51.568;6.998;2022-08-01T04:00:07;100926.09;;;20.84;100.00
3142;BME280;1581;51.568;6.998;2022-08-01T04:02:37;100932.59;;;20.83;100.00
3142;BME280;1581;51.568;6.998;2022-08-01T04:05:06;100921.19;;;20.81;100.00
3142;BME280;1581;51.568;6.998;2022-08-01T04:07:34;100921.72;;;20.79;100.00
3142;BME280;1581;51.568;6.998;2022-08-01T04:10:04;100925.72;;;20.76;100.00
3142;BME280;1581;51.568;6.998;2022-08-01T04:12:34;100925.47;;;20.78;100.00
3142;BME280;1581;51.568;6.998;2022-08-01T04:15:02;100915.22;;;20.80;100.00
3142;BME280;1581;51.568;6.998;2022-08-01T04:17:30;100920.38;;;20.81;100.00
3142;BME280;1581;51.568;6.998;2022-08-01T04:19:58;100929.31;;;20.81;100.00
3142;BME280;1581;51.568;6.998;2022-08-01T04:22:27;100923.56;;;20.78;100.00
3142;BME280;1581;51.568;6.998;2022-08-01T04:24:57;100928.78;;;20.80;100.00
3142;BME280;1581;51.568;6.998;2022-08-01T04:27:31;100931.47;;;20.80;100.00
3142;BME280;1581;51.568;6.998;2022-08-01T04:30:00;100937.44;;;20.81;100.00
3142;BME280;1581;51.568;6.998;2022-08-01T04:32:33;100939.03;;;20.78;100.00
3142;BME280;1581;51.568;6.998;2022-08-01T04:35:06;100942.31;;;20.80;100.00
3142;BME280;1581;51.568;6.998;2022-08-01T04:37:35;100951.50;;;20.79;100.00
3142;BME280;1581;51.568;6.998;2022-08-01T04:40:06;100952.63;;;20.82;100.00
3142;BME280;1581;51.568;6.998;2022-08-01T04:42:34;100955.69;;;20.86;100.00
3142;BME280;1581;51.568;6.998;2022-08-01T04:45:02;100956.22;;;20.88;100.00
3142;BME280;1581;51.568;6.998;2022-08-01T04:47:30;100958.19;;;20.92;100.00
3142;BME280;1581;51.568;6.998;2022-08-01T04:49:58;100955.28;;;20.99;100.00
3142;BME280;1581;51.568;6.998;2022-08-01T04:52:34;100968.03;;;20.98;100.00
3142;BME280;1581;51.568;6.998;2022-08-01T04:55:03;100965.81;;;20.95;100.00
3142;BME280;1581;51.568;6.998;2022-08-01T04:57:33;100966.88;;;20.94;100.00
3142;BME280;1581;51.568;6.998;2022-08-01T05:00:05;100969.53;;;20.89;100.00
3142;BME280;1581;51.568;6.998;2022-08-01T05:02:33;100969.41;;;21.01;100.00
3142;BME280;1581;51.568;6.998;2022-08-01T05:05:01;100973.28;;;21.05;100.00
3142;BME280;1581;51.568;6.998;2022-08-01T05:07:28;100968.53;;;20.95;100.00
3142;BME280;1581;51.568;6.998;2022-08-01T05:09:57;100962.75;;;21.08;100.00
3142;BME280;1581;51.568;6.998;2022-08-01T05:12:27;100978.50;;;21.11;100.00
3142;BME280;1581;51.568;6.998;2022-08-01T05:14:54;100974.72;;;21.12;100.00
3142;BME280;1581;51.568;6.998;2022-08-01T05:17:22;100967.91;;;21.10;100.00
3142;BME280;1581;51.568;6.998;2022-08-01T05:19:50;100978.03;;;20.98;100.00
3142;BME280;1581;51.568;6.998;2022-08-01T05:22:17;100980.84;;;21.03;100.00
3142;BME280;1581;51.568;6.998;2022-08-01T05:24:45;100991.91;;;21.01;100.00
3142;BME280;1581;51.568;6.998;2022-08-01T05:27:14;100991.09;;;21.01;100.00
3142;BME280;1581;51.568;6.998;2022-08-01T05:29:42;100987.81;;;20.99;100.00
3142;BME280;1581;51.568;6.998;2022-08-01T05:32:10;100995.94;;;20.99;100.00
3142;BME280;1581;51.568;6.998;2022-08-01T05:34:38;100997.53;;;20.95;100.00
3142;BME280;1581;51.568;6.998;2022-08-01T05:37:06;101000.44;;;21.10;100.00
3142;BME280;1581;51.568;6.998;2022-08-01T05:39:33;101002.34;;;21.09;100.00
3142;BME280;1581;51.568;6.998;2022-08-01T05:42:01;100998.03;;;21.13;100.00
3142;BME280;1581;51.568;6.998;2022-08-01T05:44:30;101004.44;;;21.24;100.00
3142;BME280;1581;51.568;6.998;2022-08-01T05:46:57;100998.00;;;21.30;100.00
3142;BME280;1581;51.568;6.998;2022-08-01T05:49:25;100998.28;;;21.33;100.00
3142;BME280;1581;51.568;6.998;2022-08-01T05:51:52;100997.00;;;21.36;100.00
3142;BME280;1581;51.568;6.998;2022-08-01T05:54:20;101014.34;;;21.35;100.00
3142;BME280;1581;51.568;6.998;2022-08-01T05:56:48;101003.34;;;21.25;100.00
3142;BME280;1581;51.568;6.998;2022-08-01T05:59:15;100999.63;;;21.31;100.00
3142;BME280;1581;51.568;6.998;2022-08-01T06:01:44;101006.97;;;21.30;100.00
3142;BME280;1581;51.568;6.998;2022-08-01T06:04:12;100990.91;;;21.29;100.00
3142;BME280;1581;51.568;6.998;2022-08-01T06:06:39;101000.03;;;21.39;100.00
3142;BME280;1581;51.568;6.998;2022-08-01T06:09:07;100997.81;;;21.36;100.00
3142;BME280;1581;51.568;6.998;2022-08-01T06:11:34;101002.78;;;21.44;100.00
3142;BME280;1581;51.568;6.998;2022-08-01T06:14:02;101007.56;;;21.37;100.00
3142;BME280;1581;51.568;6.998;2022-08-01T06:16:29;101004.25;;;21.30;100.00
3142;BME280;1581;51.568;6.998;2022-08-01T06:18:58;101007.41;;;21.44;100.00
3142;BME280;1581;51.568;6.998;2022-08-01T06:21:26;101002.31;;;21.52;100.00
3142;BME280;1581;51.568;6.998;2022-08-01T06:23:53;101003.16;;;21.53;100.00
3142;BME280;1581;51.568;6.998;2022-08-01T06:26:21;101007.84;;;21.36;100.00
3142;BME280;1581;51.568;6.998;2022-08-01T06:28:50;101008.47;;;21.43;100.00
3142;BME280;1581;51.568;6.998;2022-08-01T06:31:17;101001.97;;;21.44;100.00
3142;BME280;1581;51.568;6.998;2022-08-01T06:33:45;101011.94;;;21.60;100.00
3142;BME280;1581;51.568;6.998;2022-08-01T06:36:14;101010.47;;;21.52;100.00
3142;BME280;1581;51.568;6.998;2022-08-01T06:38:42;101012.94;;;21.54;100.00
3142;BME280;1581;51.568;6.998;2022-08-01T06:41:10;101014.47;;;21.66;100.00
3142;BME280;1581;51.568;6.998;2022-08-01T06:43:38;101024.09;;;21.78;100.00
3142;BME280;1581;51.568;6.998;2022-08-01T06:46:06;101022.63;;;21.92;100.00
3142;BME280;1581;51.568;6.998;2022-08-01T06:48:34;101018.84;;;21.93;100.00
3142;BME280;1581;51.568;6.998;2022-08-01T06:51:05;101021.66;;;22.03;100.00
3142;BME280;1581;51.568;6.998;2022-08-01T06:53:38;101016.03;;;22.10;100.00
3142;BME280;1581;51.568;6.998;2022-08-01T06:56:06;101024.59;;;21.97;100.00
3142;BME280;1581;51.568;6.998;2022-08-01T06:58:35;101015.31;;;21.93;100.00
3142;BME280;1581;51.568;6.998;2022-08-01T07:01:04;101020.00;;;21.76;100.00
3142;BME280;1581;51.568;6.998;2022-08-01T07:03:33;101023.28;;;21.78;100.00
3142;BME280;1581;51.568;6.998;2022-08-01T07:06:01;101011.25;;;21.69;100.00
3142;BME280;1581;51.568;6.998;2022-08-01T07:08:30;101015.66;;;21.75;100.00
3142;BME280;1581;51.568;6.998;2022-08-01T07:10:59;101011.31;;;21.74;100.00
3142;BME280;1581;51.568;6.998;2022-08-01T07:13:28;101003.31;;;21.63;100.00
3142;BME280;1581;51.568;6.998;2022-08-01T07:15:57;101010.31;;;21.80;100.00
3142;BME280;1581;51.568;6.998;2022-08-01T07:18:24;101012.31;;;21.68;100.00
3142;BME280;1581;51.568;6.998;2022-08-01T07:20:52;101012.25;;;21.84;100.00
3142;BME280;1581;51.568;6.998;2022-08-01T07:23:20;101016.16;;;21.98;100.00
3142;BME280;1581;51.568;6.998;2022-08-01T07:25:48;101017.44;;;22.17;100.00
3142;BME280;1581;51.568;6.998;2022-08-01T07:28:20;101016.84;;;22.37;100.00
3142;BME280;1581;51.568;6.998;2022-08-01T07:30:47;101023.94;;;22.38;100.00
3142;BME280;1581;51.568;6.998;2022-08-01T07:33:15;101018.69;;;22.31;100.00
3142;BME280;1581;51.568;6.998;2022-08-01T07:35:44;101029.09;;;22.39;100.00
3142;BME280;1581;51.568;6.998;2022-08-01T07:38:11;101029.94;;;22.45;100.00
3142;BME280;1581;51.568;6.998;2022-08-01T07:40:42;101023.16;;;22.42;100.00
3142;BME280;1581;51.568;6.998;2022-08-01T07:43:10;101028.97;;;22.29;100.00
